createdAt,value
2022-08-25T00:02:02.996Z,13.77
2022-08-25T00:04:30.180Z,11.50
2022-08-25T00:07:02.151Z,11.65
2022-08-25T00:09:31.535Z,12.75
2022-08-25T00:11:58.750Z,12.85
2022-08-25T00:14:29.193Z,12.70
2022-08-25T00:16:56.456Z,14.82
2022-08-25T00:19:31.616Z,10.48
2022-08-25T00:21:59.187Z,12.00
2022-08-25T00:24:26.165Z,8.25
2022-08-25T00:26:55.279Z,13.95
2022-08-25T00:29:23.138Z,15.90
2022-08-25T00:31:49.933Z,11.27
2022-08-25T00:34:20.691Z,9.05
2022-08-25T00:36:47.683Z,11.05
2022-08-25T00:39:14.617Z,10.80
2022-08-25T00:41:43.458Z,15.60
2022-08-25T00:44:13.075Z,9.85
2022-08-25T00:46:48.063Z,10.90
2022-08-25T00:49:24.880Z,7.38
2022-08-25T00:52:13.216Z,15.18
2022-08-25T00:54:47.736Z,8.32
2022-08-25T00:57:16.641Z,11.80
2022-08-25T00:59:44.393Z,9.23
2022-08-25T01:02:13.884Z,14.60
2022-08-25T01:04:45.882Z,13.57
2022-08-25T01:07:18.688Z,10.80
2022-08-25T01:09:47.626Z,8.27
2022-08-25T01:12:14.418Z,12.40
2022-08-25T01:14:42.380Z,8.30
2022-08-25T01:17:09.602Z,9.95
2022-08-25T01:19:36.337Z,11.88
2022-08-25T01:22:03.706Z,16.60
2022-08-25T01:25:07.654Z,9.05
2022-08-25T01:27:34.375Z,14.65
2022-08-25T01:30:01.069Z,12.65
2022-08-25T01:32:27.725Z,12.90
2022-08-25T01:34:54.910Z,10.88
2022-08-25T01:37:21.622Z,8.73
2022-08-25T01:39:48.498Z,10.05
2022-08-25T01:42:37.857Z,11.90
2022-08-25T01:45:05.609Z,9.75
2022-08-25T01:47:32.779Z,10.13
2022-08-25T01:49:59.523Z,11.40
2022-08-25T01:52:34.070Z,7.38
2022-08-25T01:55:00.675Z,12.20
2022-08-25T01:57:30.233Z,13.15
2022-08-25T01:59:57.443Z,12.05
2022-08-25T02:02:24.356Z,14.02
2022-08-25T02:04:53.095Z,9.25
2022-08-25T02:07:20.296Z,9.25
2022-08-25T02:09:47.076Z,8.18
2022-08-25T02:12:13.933Z,13.75
2022-08-25T02:14:40.820Z,10.85
2022-08-25T02:17:08.466Z,11.73
2022-08-25T02:19:35.214Z,10.55
2022-08-25T02:22:02.297Z,10.32
2022-08-25T02:24:29.006Z,7.88
2022-08-25T02:26:55.714Z,11.68
2022-08-25T02:29:22.747Z,11.20
2022-08-25T02:31:49.712Z,7.82
2022-08-25T02:34:16.447Z,12.70
2022-08-25T02:36:43.796Z,12.90
2022-08-25T02:39:11.925Z,9.65
2022-08-25T02:41:39.035Z,13.98
2022-08-25T02:44:06.100Z,10.55
2022-08-25T02:46:34.203Z,13.48
2022-08-25T02:49:00.959Z,28.30
2022-08-25T02:51:30.180Z,16.58
2022-08-25T02:53:58.681Z,21.38
2022-08-25T02:56:25.835Z,12.32
2022-08-25T02:58:52.649Z,13.38
2022-08-25T03:01:19.437Z,13.10
2022-08-25T03:03:47.065Z,13.38
2022-08-25T03:06:16.799Z,16.17
2022-08-25T03:08:44.261Z,9.43
2022-08-25T03:11:11.376Z,12.68
2022-08-25T03:13:38.365Z,7.95
2022-08-25T03:16:11.288Z,13.32
2022-08-25T03:18:39.925Z,12.43
2022-08-25T03:21:07.545Z,12.23
2022-08-25T03:23:34.553Z,17.10
2022-08-25T03:26:19.725Z,15.05
2022-08-25T03:28:46.392Z,13.93
2022-08-25T03:33:58.458Z,14.15
2022-08-25T03:36:25.895Z,15.38
2022-08-25T03:38:53.620Z,13.63
2022-08-25T03:41:27.757Z,10.63
2022-08-25T03:43:56.280Z,12.80
2022-08-25T03:46:29.122Z,13.25
2022-08-25T03:48:57.188Z,16.23
2022-08-25T03:51:31.323Z,17.67
2022-08-25T03:56:27.467Z,16.05
2022-08-25T03:58:55.621Z,14.90
2022-08-25T04:01:23.614Z,15.48
2022-08-25T04:03:50.682Z,14.02
2022-08-25T04:06:19.513Z,13.73
2022-08-25T04:08:47.110Z,10.75
2022-08-25T04:11:17.571Z,12.95
2022-08-25T04:13:46.524Z,13.55
2022-08-25T04:16:15.893Z,11.18
2022-08-25T04:18:43.744Z,11.45
2022-08-25T04:21:12.962Z,13.07
2022-08-25T04:23:42.823Z,8.75
2022-08-25T04:26:16.723Z,11.73
2022-08-25T04:28:43.428Z,7.28
2022-08-25T04:31:11.831Z,8.38
2022-08-25T04:33:39.267Z,7.85
2022-08-25T04:36:11.932Z,9.88
2022-08-25T04:38:40.739Z,11.20
2022-08-25T04:41:09.370Z,14.35
2022-08-25T04:43:37.277Z,14.50
2022-08-25T04:46:12.778Z,23.27
2022-08-25T04:48:40.397Z,19.17
2022-08-25T04:51:09.773Z,21.52
2022-08-25T04:53:37.128Z,18.73
2022-08-25T04:56:07.833Z,23.40
2022-08-25T04:58:35.264Z,22.73
2022-08-25T05:01:07.494Z,26.45
2022-08-25T05:03:34.978Z,22.27
2022-08-25T05:06:02.246Z,20.65
2022-08-25T05:08:29.286Z,23.38
2022-08-25T05:10:56.766Z,26.05
2022-08-25T05:13:25.621Z,25.00
2022-08-25T05:15:58.252Z,25.23
2022-08-25T05:18:29.041Z,25.20
2022-08-25T05:20:57.650Z,29.98
2022-08-25T05:23:25.318Z,26.00
2022-08-25T05:25:52.992Z,24.77
2022-08-25T05:28:21.319Z,27.98
2022-08-25T05:30:49.486Z,25.80
2022-08-25T05:33:17.304Z,27.48
2022-08-25T05:35:44.966Z,23.67
2022-08-25T05:38:15.122Z,26.63
2022-08-25T05:40:42.401Z,30.40
2022-08-25T05:43:09.218Z,19.80
2022-08-25T05:45:36.399Z,25.48
2022-08-25T05:48:03.395Z,30.58
2022-08-25T05:50:30.071Z,23.20
2022-08-25T05:52:56.752Z,26.23
2022-08-25T05:55:23.391Z,26.48
2022-08-25T05:57:50.414Z,24.55
2022-08-25T06:00:17.480Z,24.65
2022-08-25T06:02:46.287Z,26.27
2022-08-25T06:05:18.657Z,29.65
2022-08-25T06:07:47.307Z,27.85
2022-08-25T06:10:14.990Z,24.80
2022-08-25T06:12:44.814Z,25.13
2022-08-25T06:15:17.100Z,31.88
2022-08-25T06:17:44.105Z,27.95
2022-08-25T06:20:14.200Z,34.22
2022-08-25T06:22:41.964Z,30.20
2022-08-25T06:25:10.462Z,25.25
2022-08-25T06:27:37.728Z,27.17
2022-08-25T06:30:07.912Z,27.58
2022-08-25T06:32:36.973Z,27.40
2022-08-25T06:35:09.153Z,24.63
2022-08-25T06:37:36.410Z,28.38
2022-08-25T06:40:04.213Z,31.88
2022-08-25T06:42:30.995Z,23.60
2022-08-25T06:44:57.633Z,23.48
2022-08-25T06:47:24.381Z,30.30
2022-08-25T06:49:51.120Z,28.42
2022-08-25T06:52:17.876Z,22.25
2022-08-25T06:54:44.751Z,22.67
2022-08-25T06:57:16.075Z,24.92
2022-08-25T06:59:42.716Z,26.50
2022-08-25T07:02:09.992Z,22.90
2022-08-25T07:04:36.888Z,22.27
2022-08-25T07:07:04.704Z,28.40
2022-08-25T07:09:35.236Z,22.55
2022-08-25T07:12:05.656Z,19.63
2022-08-25T07:14:32.367Z,26.00
2022-08-25T07:16:59.612Z,18.95
2022-08-25T07:19:26.251Z,20.77
2022-08-25T07:21:54.225Z,19.65
2022-08-25T07:24:22.081Z,21.45
2022-08-25T07:26:49.344Z,22.52
2022-08-25T07:29:20.397Z,18.05
2022-08-25T07:31:58.597Z,20.88
2022-08-25T07:34:44.095Z,18.02
2022-08-25T07:37:10.956Z,17.70
2022-08-25T07:39:37.740Z,19.08
2022-08-25T07:42:05.417Z,19.98
2022-08-25T07:44:38.632Z,19.20
2022-08-25T07:47:05.363Z,19.30
2022-08-25T07:49:35.807Z,17.33
2022-08-25T07:52:07.006Z,20.05
2022-08-25T07:54:37.904Z,15.93
2022-08-25T07:57:07.325Z,17.10
2022-08-25T07:59:39.514Z,22.30
2022-08-25T08:02:18.543Z,21.58
2022-08-25T08:04:50.586Z,19.15
2022-08-25T08:07:18.996Z,16.35
2022-08-25T08:09:46.033Z,17.20
2022-08-25T08:12:12.889Z,17.92
2022-08-25T08:14:44.999Z,20.55
2022-08-25T08:17:13.614Z,17.95
2022-08-25T08:19:44.947Z,21.52
2022-08-25T08:22:15.022Z,17.55
2022-08-25T08:24:54.132Z,21.98
2022-08-25T08:27:21.783Z,19.70
2022-08-25T08:30:32.565Z,19.42
2022-08-25T08:33:09.636Z,17.60
2022-08-25T08:35:45.148Z,17.00
2022-08-25T08:38:17.337Z,20.00
2022-08-25T08:41:23.280Z,18.52
2022-08-25T08:43:56.530Z,15.15
2022-08-25T08:46:31.772Z,15.05
2022-08-25T08:49:06.915Z,19.42
2022-08-25T08:51:45.922Z,18.42
2022-08-25T08:54:38.419Z,18.15
2022-08-25T08:57:19.872Z,14.35
2022-08-25T08:59:51.914Z,18.40
2022-08-25T09:02:39.383Z,26.55
2022-08-25T09:05:19.914Z,21.27
2022-08-25T09:08:05.096Z,15.13
2022-08-25T09:10:45.577Z,16.30
2022-08-25T09:13:44.826Z,14.93
2022-08-25T09:16:48.055Z,13.20
2022-08-25T09:19:32.032Z,16.98
2022-08-25T09:22:35.812Z,15.48
2022-08-25T09:25:22.011Z,17.85
2022-08-25T09:28:08.297Z,14.85
2022-08-25T09:30:51.874Z,16.48
2022-08-25T09:33:22.812Z,18.08
2022-08-25T09:35:52.128Z,19.55
2022-08-25T09:38:21.507Z,11.23
2022-08-25T09:40:51.372Z,14.13
2022-08-25T09:43:22.093Z,11.85
2022-08-25T09:46:20.506Z,18.60
2022-08-25T09:48:56.565Z,19.73
2022-08-25T09:51:42.471Z,12.68
2022-08-25T09:54:15.699Z,10.88
2022-08-25T09:56:54.465Z,14.20
2022-08-25T09:59:34.952Z,12.07
2022-08-25T10:02:32.759Z,17.92
2022-08-25T10:04:59.692Z,13.23
2022-08-25T10:07:30.320Z,18.92
2022-08-25T10:10:07.707Z,10.90
2022-08-25T10:12:42.693Z,14.60
2022-08-25T10:15:37.121Z,19.65
2022-08-25T10:18:26.205Z,14.93
2022-08-25T10:21:11.710Z,11.52
2022-08-25T10:23:48.427Z,16.52
2022-08-25T10:26:35.084Z,15.52
2022-08-25T10:29:29.407Z,13.60
2022-08-25T10:32:22.771Z,14.50
2022-08-25T10:34:54.804Z,11.25
2022-08-25T10:37:48.524Z,11.85
2022-08-25T10:40:21.846Z,12.13
2022-08-25T10:42:48.608Z,13.50
2022-08-25T10:45:43.165Z,15.43
2022-08-25T10:48:22.218Z,16.75
2022-08-25T10:51:02.019Z,16.55
2022-08-25T10:53:49.068Z,14.52
2022-08-25T10:56:27.560Z,17.67
2022-08-25T10:59:09.465Z,10.63
2022-08-25T11:01:57.763Z,16.65
2022-08-25T11:04:39.950Z,18.67
2022-08-25T11:07:28.110Z,14.27
2022-08-25T11:09:59.817Z,16.85
2022-08-25T11:12:35.773Z,14.20
2022-08-25T11:15:10.233Z,12.18
2022-08-25T11:17:43.237Z,17.40
2022-08-25T11:20:26.578Z,13.35
2022-08-25T11:22:59.712Z,16.58
2022-08-25T11:25:29.516Z,16.42
2022-08-25T11:28:31.334Z,15.25
2022-08-25T11:31:00.640Z,19.58
2022-08-25T11:33:30.495Z,20.00
2022-08-25T11:36:19.307Z,15.45
2022-08-25T11:39:00.740Z,14.70
2022-08-25T11:42:01.440Z,18.95
2022-08-25T11:44:38.172Z,17.05
2022-08-25T11:47:31.844Z,21.88
2022-08-25T11:50:06.887Z,21.15
2022-08-25T11:52:34.703Z,10.10
2022-08-25T11:55:43.637Z,12.85
2022-08-25T11:58:28.153Z,17.77
2022-08-25T12:01:02.339Z,21.42
2022-08-25T12:03:32.035Z,20.77
2022-08-25T12:06:21.541Z,17.67
2022-08-25T12:08:59.413Z,16.77
2022-08-25T12:11:44.300Z,18.30
2022-08-25T12:14:28.410Z,22.98
2022-08-25T12:16:55.301Z,22.70
2022-08-25T12:19:28.867Z,18.75
2022-08-25T12:22:15.529Z,15.32
2022-08-25T12:24:50.430Z,15.77
2022-08-25T12:27:39.995Z,19.88
2022-08-25T12:30:38.445Z,14.07
2022-08-25T12:33:46.412Z,15.10
2022-08-25T12:36:27.757Z,16.25
2022-08-25T12:38:54.563Z,22.27
2022-08-25T12:41:31.055Z,28.27
2022-08-25T12:44:34.887Z,15.02
2022-08-25T12:47:29.842Z,19.80
2022-08-25T12:50:34.380Z,21.98
2022-08-25T12:55:46.404Z,14.13
2022-08-25T12:58:13.211Z,16.40
2022-08-25T13:01:01.833Z,15.45
2022-08-25T13:04:00.266Z,18.38
2022-08-25T13:06:47.363Z,19.10
2022-08-25T13:09:32.839Z,14.65
2022-08-25T13:12:21.513Z,20.58
2022-08-25T13:14:54.539Z,18.77
2022-08-25T13:17:29.043Z,21.20
2022-08-25T13:20:31.272Z,20.83
2022-08-25T13:23:00.809Z,20.52
2022-08-25T13:25:32.109Z,24.50
2022-08-25T13:28:02.915Z,27.60
2022-08-25T13:30:36.966Z,32.03
2022-08-25T13:33:19.992Z,21.48
2022-08-25T13:36:19.260Z,22.75
2022-08-25T13:38:48.475Z,24.30
2022-08-25T13:41:28.926Z,21.95
2022-08-25T13:43:57.086Z,18.85
2022-08-25T13:46:27.956Z,20.27
2022-08-25T13:49:05.289Z,20.63
2022-08-25T13:51:32.998Z,24.45
2022-08-25T13:54:21.316Z,22.85
2022-08-25T13:56:48.205Z,20.08
2022-08-25T13:59:20.999Z,25.98
2022-08-25T14:01:50.222Z,24.75
2022-08-25T14:04:51.464Z,26.10
2022-08-25T14:07:22.567Z,21.38
2022-08-25T14:09:58.211Z,16.45
2022-08-25T14:12:55.437Z,22.75
2022-08-25T14:15:22.054Z,25.95
2022-08-25T14:18:19.969Z,20.27
2022-08-25T14:20:55.802Z,25.20
2022-08-25T14:23:26.993Z,20.30
2022-08-25T14:25:55.420Z,21.77
2022-08-25T14:28:25.482Z,21.10
2022-08-25T14:30:59.035Z,24.58
2022-08-25T14:33:34.248Z,28.77
2022-08-25T14:36:04.975Z,34.45
2022-08-25T14:38:33.523Z,27.38
2022-08-25T14:41:00.536Z,37.15
2022-08-25T14:43:32.010Z,27.33
2022-08-25T14:46:00.540Z,29.42
2022-08-25T14:48:35.248Z,30.00
2022-08-25T14:51:03.603Z,22.50
2022-08-25T14:53:30.276Z,27.73
2022-08-25T14:55:58.993Z,30.10
2022-08-25T14:58:27.433Z,26.42
2022-08-25T15:00:55.311Z,28.60
2022-08-25T15:03:31.745Z,34.45
2022-08-25T15:06:00.395Z,20.20
2022-08-25T15:08:46.549Z,19.42
2022-08-25T15:11:14.472Z,28.23
2022-08-25T15:13:44.674Z,21.70
2022-08-25T15:16:41.989Z,23.85
2022-08-25T15:21:37.221Z,34.30
2022-08-25T15:24:05.984Z,24.65
2022-08-25T15:26:39.967Z,21.23
2022-08-25T15:29:06.911Z,31.23
2022-08-25T15:31:35.934Z,27.67
2022-08-25T15:34:02.761Z,27.60
2022-08-25T15:36:29.505Z,21.05
2022-08-25T15:38:56.164Z,26.35
2022-08-25T15:41:27.120Z,21.20
2022-08-25T15:43:55.535Z,28.60
2022-08-25T15:46:24.912Z,30.55
2022-08-25T15:48:51.719Z,22.65
2022-08-25T15:51:18.961Z,21.65
2022-08-25T15:53:46.189Z,24.30
2022-08-25T15:56:26.709Z,31.98
2022-08-25T15:58:55.325Z,24.95
2022-08-25T16:01:25.002Z,31.92
2022-08-25T16:03:52.611Z,21.63
2022-08-25T16:06:19.530Z,25.95
2022-08-25T16:08:46.181Z,29.67
2022-08-25T16:11:22.770Z,28.02
2022-08-25T16:13:50.624Z,28.58
2022-08-25T16:16:18.713Z,22.35
2022-08-25T16:18:46.084Z,33.90
2022-08-25T16:21:16.526Z,24.77
2022-08-25T16:23:43.271Z,35.22
2022-08-25T16:26:11.529Z,21.80
2022-08-25T16:28:43.834Z,23.77
2022-08-25T16:31:14.140Z,32.80
2022-08-25T16:36:12.178Z,31.88
2022-08-25T16:38:40.860Z,24.42
2022-08-25T16:41:09.956Z,20.55
2022-08-25T16:43:37.391Z,30.05
2022-08-25T16:46:07.941Z,20.42
2022-08-25T16:48:35.883Z,18.38
2022-08-25T16:51:07.936Z,19.17
2022-08-25T16:53:53.448Z,18.55
2022-08-25T16:56:24.803Z,21.67
2022-08-25T16:58:55.293Z,20.55
2022-08-25T17:01:25.376Z,27.38
2022-08-25T17:03:54.458Z,22.30
2022-08-25T17:06:23.701Z,16.92
2022-08-25T17:08:51.029Z,16.83
2022-08-25T17:11:29.938Z,15.32
2022-08-25T17:14:00.728Z,20.25
2022-08-25T17:16:30.021Z,24.58
2022-08-25T17:19:00.568Z,15.98
2022-08-25T17:21:31.268Z,22.52
2022-08-25T17:23:58.004Z,22.48
2022-08-25T17:26:27.764Z,15.50
2022-08-25T17:28:56.989Z,14.43
2022-08-25T17:31:26.860Z,25.85
2022-08-25T17:33:55.091Z,15.77
2022-08-25T17:36:27.045Z,13.77
2022-08-25T17:38:54.950Z,17.30
2022-08-25T17:41:23.857Z,11.80
2022-08-25T17:43:50.627Z,18.20
2022-08-25T17:46:18.125Z,19.80
2022-08-25T17:48:44.957Z,17.52
2022-08-25T17:51:12.601Z,16.45
2022-08-25T17:53:43.536Z,21.35
2022-08-25T17:56:16.870Z,13.02
2022-08-25T17:58:45.820Z,22.60
2022-08-25T18:01:22.970Z,19.27
2022-08-25T18:03:49.857Z,17.55
2022-08-25T18:06:17.036Z,18.55
2022-08-25T18:08:44.836Z,14.82
2022-08-25T18:11:20.192Z,20.48
2022-08-25T18:13:47.267Z,15.07
2022-08-25T18:16:17.244Z,20.50
2022-08-25T18:18:44.617Z,17.58
2022-08-25T18:21:16.682Z,11.63
2022-08-25T18:23:44.265Z,15.50
2022-08-25T18:26:13.055Z,18.27
2022-08-25T18:28:40.360Z,17.02
2022-08-25T18:31:12.007Z,14.52
2022-08-25T18:33:41.938Z,18.45
2022-08-25T18:36:09.737Z,16.50
2022-08-25T18:38:57.879Z,20.90
2022-08-25T18:41:26.352Z,26.13
2022-08-25T18:43:53.679Z,15.75
2022-08-25T18:46:22.589Z,21.00
2022-08-25T18:48:52.580Z,12.88
2022-08-25T18:51:23.225Z,17.63
2022-08-25T18:53:51.126Z,14.43
2022-08-25T18:56:22.400Z,11.68
2022-08-25T18:58:49.165Z,11.45
2022-08-25T19:01:18.318Z,15.80
2022-08-25T19:03:45.412Z,16.17
2022-08-25T19:06:12.228Z,22.80
2022-08-25T19:08:41.868Z,22.42
2022-08-25T19:11:09.974Z,18.23
2022-08-25T19:13:37.831Z,15.32
2022-08-25T19:16:20.223Z,14.90
2022-08-25T19:18:48.809Z,17.85
2022-08-25T19:21:15.737Z,22.27
2022-08-25T19:23:42.446Z,22.15
2022-08-25T19:26:13.969Z,19.13
2022-08-25T19:28:50.394Z,18.30
2022-08-25T19:31:18.956Z,17.47
2022-08-25T19:33:47.331Z,17.50
2022-08-25T19:36:14.153Z,23.83
2022-08-25T19:38:40.985Z,24.83
2022-08-25T19:41:10.561Z,25.08
2022-08-25T19:43:50.547Z,18.48
2022-08-25T19:46:33.393Z,23.60
2022-08-25T19:49:14.253Z,22.08
2022-08-25T19:51:44.697Z,14.52
2022-08-25T19:54:14.595Z,15.77
2022-08-25T19:56:43.894Z,20.88
2022-08-25T19:59:22.769Z,17.58
2022-08-25T20:01:49.811Z,19.10
2022-08-25T20:04:16.908Z,20.05
2022-08-25T20:06:43.717Z,13.10
2022-08-25T20:09:29.343Z,15.93
2022-08-25T20:12:02.471Z,13.98
2022-08-25T20:14:29.237Z,21.40
2022-08-25T20:16:55.974Z,19.08
2022-08-25T20:19:22.652Z,19.17
2022-08-25T20:21:49.308Z,18.13
2022-08-25T20:24:34.517Z,16.08
2022-08-25T20:27:01.882Z,19.30
2022-08-25T20:29:29.803Z,19.95
2022-08-25T20:31:56.586Z,15.48
2022-08-25T20:34:23.385Z,22.42
2022-08-25T20:36:50.673Z,14.80
2022-08-25T20:39:17.999Z,18.50
2022-08-25T20:41:48.412Z,17.30
2022-08-25T20:44:15.976Z,20.98
2022-08-25T20:46:44.304Z,21.08
2022-08-25T20:49:11.124Z,27.13
2022-08-25T20:51:38.715Z,19.80
2022-08-25T20:54:05.659Z,20.00
2022-08-25T20:56:33.009Z,17.75
2022-08-25T20:59:00.573Z,16.15
2022-08-25T21:01:37.590Z,18.13
2022-08-25T21:04:14.555Z,24.67
2022-08-25T21:06:42.046Z,15.90
2022-08-25T21:09:14.374Z,23.90
2022-08-25T21:11:43.720Z,16.83
2022-08-25T21:14:12.761Z,13.80
2022-08-25T21:16:40.905Z,21.52
2022-08-25T21:19:08.895Z,16.55
2022-08-25T21:21:38.461Z,17.20
2022-08-25T21:24:09.689Z,14.32
2022-08-25T21:26:48.546Z,16.02
2022-08-25T21:29:17.526Z,21.02
2022-08-25T21:31:45.337Z,24.45
2022-08-25T21:34:12.786Z,23.25
2022-08-25T21:36:40.101Z,19.55
2022-08-25T21:39:07.139Z,19.80
2022-08-25T21:41:36.850Z,27.55
2022-08-25T21:44:03.864Z,19.10
2022-08-25T21:46:33.576Z,17.00
2022-08-25T21:49:01.389Z,15.60
2022-08-25T21:51:40.611Z,26.52
2022-08-25T21:54:10.953Z,17.45
2022-08-25T21:56:49.957Z,23.73
2022-08-25T21:59:23.920Z,17.70
2022-08-25T22:04:25.638Z,13.13
2022-08-25T22:06:52.392Z,23.05
2022-08-25T22:09:19.374Z,25.88
2022-08-25T22:11:46.816Z,22.48
2022-08-25T22:14:14.648Z,15.02
2022-08-25T22:16:42.556Z,18.58
2022-08-25T22:19:12.352Z,19.67
2022-08-25T22:21:40.322Z,18.42
2022-08-25T22:24:07.182Z,25.60
2022-08-25T22:26:34.348Z,18.63
2022-08-25T22:29:02.105Z,23.92
2022-08-25T22:31:29.216Z,24.35
2022-08-25T22:33:57.746Z,19.75
2022-08-25T22:36:33.922Z,23.15
2022-08-25T22:39:01.519Z,20.85
2022-08-25T22:41:31.445Z,22.65
2022-08-25T22:44:00.549Z,23.92
2022-08-25T22:46:32.380Z,16.10
2022-08-25T22:48:59.876Z,24.45
2022-08-25T22:51:31.442Z,19.08
2022-08-25T22:53:59.428Z,17.73
2022-08-25T22:56:35.290Z,22.98
2022-08-25T22:59:09.948Z,18.48
2022-08-25T23:01:37.755Z,20.85
2022-08-25T23:04:07.387Z,15.52
2022-08-25T23:06:34.795Z,19.67
2022-08-25T23:09:04.880Z,20.95
2022-08-25T23:11:31.609Z,22.05
2022-08-25T23:14:02.356Z,18.13
2022-08-25T23:16:29.542Z,19.25
2022-08-25T23:18:56.238Z,16.25
2022-08-25T23:21:42.446Z,18.70
2022-08-25T23:24:11.271Z,17.75
2022-08-25T23:26:41.835Z,20.42
2022-08-25T23:29:18.778Z,18.33
2022-08-25T23:31:47.011Z,17.02
2022-08-25T23:34:15.629Z,19.45
2022-08-25T23:36:43.472Z,22.25
2022-08-25T23:39:11.306Z,17.77
2022-08-25T23:41:38.651Z,18.35
2022-08-25T23:44:06.635Z,16.70
2022-08-25T23:46:36.161Z,20.70
2022-08-25T23:49:08.242Z,20.38
2022-08-25T23:51:38.113Z,12.07
2022-08-25T23:54:09.438Z,17.45
2022-08-25T23:56:44.827Z,22.92
2022-08-25T23:59:19.589Z,22.45
